Portefeuille

The Gils

Valeur totale des actifs : 0,000 €

Films achetés

Titre Date Qté Semaine
(unitaire/total)
Cumul
(unitaire/total)
Poltergeist 2015-06-24 5 0,000 € / 0,000 € 64,659 € / 323,295 €
La résistance de l'air 2015-06-17 2 0,000 € / 0,000 € 9,101 € / 18,202 €
San Andreas 2015-05-27 5 0,000 € / 0,000 € 312,792 € / 1 563,960 €
Maggie 2015-05-27 3 0,000 € / 0,000 € 37,288 € / 111,864 €
Le talent de mes amis 2015-05-06 5 0,000 € / 0,000 € 34,044 € / 170,220 €
Pyramide 2015-05-06 5 0,000 € / 0,000 € 82,608 € / 413,040 €
Hyena 2015-05-06 3 0,000 € / 0,000 € 4,225 € / 12,675 €
Nos femmes 2015-04-29 3 0,000 € / 0,000 € 71,102 € / 213,306 €
Les portes du soleil - Algérie pour toujours 2015-03-18 2 0,000 € / 0,000 € 1,694 € / 3,388 €
Hacker 2015-03-18 5 0,000 € / 0,000 € 60,121 € / 300,605 €
Night run 2015-03-11 3 0,000 € / 0,000 € 149,818 € / 449,454 €
Lazarus effect 2015-03-11 3 0,000 € / 0,000 € 61,530 € / 184,590 €
The voices 2015-03-11 3 0,000 € / 0,000 € 104,827 € / 314,481 €
Chappie 2015-03-04 5 0,000 € / 0,000 € 158,784 € / 793,920 €
Annie 2015-02-25 2 0,000 € / 0,000 € 47,144 € / 94,288 €
Tracers 2015-02-25 2 0,000 € / 0,000 € 44,654 € / 89,308 €
Projet Almanac 2015-02-25 5 0,000 € / 0,000 € 52,825 € / 264,125 €
Birdman 2015-02-25 5 0,000 € / 0,000 € 288,429 € / 1 442,145 €
Le dernier loup 2015-02-25 5 0,000 € / 0,000 € 190,506 € / 952,530 €
Red army 2015-02-25 3 0,000 € / 0,000 € 7,399 € / 22,197 €
La nuit au musée : le secret des pharaons 2015-02-04 5 0,000 € / 0,000 € 287,783 € / 1 438,915 €
Into the woods, promenons-nous dans les bois 2015-01-28 5 0,000 € / 0,000 € 72,488 € / 362,440 €
Snow therapy 2015-01-28 2 0,000 € / 0,000 € 56,949 € / 113,898 €
Toute première fois 2015-01-28 5 0,000 € / 0,000 € 120,736 € / 603,680 €
Imitation game 2015-01-28 3 0,000 € / 0,000 € 407,921 € / 1 223,763 €
Cops les forces du désordre 2015-01-21 3 0,000 € / 0,000 € 62,277 € / 186,831 €
Rendez-vous à Atlit 2015-01-21 2 0,000 € / 0,000 € 10,679 € / 21,358 €
La dame en noir 2 : L'ange de la mort 2015-01-14 2 0,000 € / 0,000 € 62,535 € / 125,070 €
A most violent year 2014-12-31 3 0,000 € / 0,000 € 172,438 € / 517,314 €
Dumb & Dumber DE 2014-12-24 3 0,000 € / 0,000 € 60,555 € / 181,665 €
Le septième fils 2014-12-24 3 0,000 € / 0,000 € 133,344 € / 400,032 €
La famille Bélier 2014-12-24 5 0,000 € / 0,000 € 948,102 € / 4 740,510 €
Repas de famille 2014-12-03 5 0,000 € / 0,000 € 8,298 € / 41,490 €
Les opportunistes 2014-11-19 2 0,000 € / 0,000 € 29,551 € / 59,102 €
'71 2014-11-05 2 0,000 € / 0,000 € 27,863 € / 55,726 €
Et (beaucoup) plus si affinités 2014-10-29 2 0,000 € / 0,000 € 11,126 € / 22,252 €
The november man 2014-10-29 5 0,000 € / 0,000 € 50,122 € / 250,610 €
Le juge 2014-10-22 5 0,000 € / 0,000 € 57,547 € / 287,735 €
Ninja turtles 2014-10-15 5 0,000 € / 0,000 € 424,935 € / 2 124,675 €
Papa was not a Rolling Stone 2014-10-08 3 0,000 € / 0,000 € 25,017 € / 75,051 €
Equalizer 2014-10-01 5 0,000 € / 0,000 € 255,159 € / 1 275,795 €
Horns 2014-10-01 5 0,000 € / 0,000 € 60,954 € / 304,770 €
Bodybuilder 2014-10-01 2 0,000 € / 0,000 € 20,136 € / 40,272 €
Dracula untold 2014-10-01 3 0,000 € / 0,000 € 191,717 € / 575,151 €
Gemma Bovery 2014-09-10 5 0,000 € / 0,000 € 157,010 € / 785,050 €
Mademoiselle Julie 2014-09-10 2 0,000 € / 0,000 € 9,238 € / 18,476 €
Near death experience 2014-09-10 3 0,000 € / 0,000 € 13,838 € / 41,514 €
Sex tape 2014-09-10 5 0,000 € / 0,000 € 136,843 € / 684,215 €
22 jump street 2014-08-27 3 0,000 € / 0,000 € 157,229 € / 471,687 €
Nos étoiles contraires 2014-08-20 3 0,000 € / 0,000 € 187,121 € / 561,363 €
Catacombes 2014-08-20 5 0,000 € / 0,000 € 69,435 € / 347,175 €
Des lendemains qui chantent 2014-08-20 3 0,000 € / 0,000 € 33,157 € / 99,471 €
Expendables 3 2014-08-20 5 0,000 € / 0,000 € 204,600 € / 1 023,000 €
SMS 2014-08-20 3 0,000 € / 0,000 € 51,137 € / 153,411 €
Operation casse-noisette 2014-08-06 3 0,000 € / 0,000 € 202,080 € / 606,240 €
Winter sleep 2014-08-06 3 0,000 € / 0,000 € 109,848 € / 329,544 €
Detective Dee II 2014-08-06 3 0,000 € / 0,000 € 32,784 € / 98,352 €
Nos pires voisins 2014-08-06 5 0,000 € / 0,000 € 150,995 € / 754,975 €
Echo 2014-07-30 5 0,000 € / 0,000 € 17,349 € / 86,745 €
Moonwalk one 2014-07-30 2 0,000 € / 0,000 € 3,559 € / 7,118 €
American nightmare 2 : anarchie 2014-07-23 3 0,000 € / 0,000 € 148,243 € / 444,729 €
Blue ruin 2014-07-09 2 0,000 € / 0,000 € 31,261 € / 62,522 €
Coldwater 2014-07-09 2 0,000 € / 0,000 € 17,818 € / 35,636 €
Big bad wolves 2014-07-02 3 0,000 € / 0,000 € 7,331 € / 21,993 €
Zero Theorem 2014-06-25 5 0,000 € / 0,000 € 23,767 € / 118,835 €
Transcendance 2014-06-25 5 0,000 € / 0,000 € 181,712 € / 908,560 €
Jersey boys 2014-06-18 5 0,000 € / 0,000 € 99,334 € / 496,670 €
Dom Hemingway 2014-06-04 2 0,000 € / 0,000 € 0,149 € / 0,298 €
Sous les jupes des filles 2014-06-04 5 0,000 € / 0,000 € 252,059 € / 1 260,295 €
Ugly 2014-05-28 3 0,000 € / 0,000 € 13,324 € / 39,972 €
Caricaturistes, fantassins de la démocratie 2014-05-28 2 0,000 € / 0,000 € 3,714 € / 7,428 €
Blackout total 2014-05-21 2 0,000 € / 0,000 € 44,986 € / 89,972 €
Gaudi, le mystère de la sagrada familia 2014-05-14 2 0,000 € / 0,000 € 7,736 € / 15,472 €
Godzilla 2014-05-14 5 0,000 € / 0,000 € 334,152 € / 1 670,760 €
Kidon 2014-05-14 3 0,000 € / 0,000 € 12,412 € / 37,236 €
Mise à l'épreuve 2014-05-14 2 0,000 € / 0,000 € 4,551 € / 9,102 €
Cristeros 2014-05-14 2 0,000 € / 0,000 € 26,278 € / 52,556 €
Sabotage 2014-05-07 3 0,000 € / 0,000 € 42,073 € / 126,219 €
De guerre lasse 2014-05-07 3 0,000 € / 0,000 € 10,207 € / 30,621 €
Man of Tai Chi 2014-04-30 5 0,000 € / 0,000 € 2,383 € / 11,915 €
Brick mansions 2014-04-23 5 0,000 € / 0,000 € 94,101 € / 470,505 €
Monuments men 2014-03-12 5 0,000 € / 0,000 € 279,008 € / 1 395,040 €
Un amour d'hiver 2014-03-12 2 0,000 € / 0,000 € 23,915 € / 47,830 €
Un été a Osage County 2014-02-26 3 0,000 € / 0,000 € 143,370 € / 430,110 €
The grand Budapest hotel 2014-02-26 3 0,000 € / 0,000 € 594,521 € / 1 783,563 €
Le crocodile du Botswanga 2014-02-19 5 0,000 € / 0,000 € 492,742 € / 2 463,710 €
Abus de faiblesse 2014-02-12 2 0,000 € / 0,000 € 11,899 € / 23,798 €
La voleuse de livres 2014-02-05 2 0,000 € / 0,000 € 34,456 € / 68,912 €
Belle comme la femme d'un autre 2014-01-22 2 0,000 € / 0,000 € 11,083 € / 22,166 €
Cadences obstinées 2014-01-08 2 0,000 € / 0,000 € 2,031 € / 4,062 €
Fruitvale station 2014-01-01 2 0,000 € / 0,000 € 21,830 € / 43,660 €
Du sang et des larmes 2014-01-01 5 0,000 € / 0,000 € 65,827 € / 329,135 €
Oldboy 2014-01-01 2 0,000 € / 0,000 € 7,809 € / 15,618 €
Le loup de Wall Street 2013-12-25 5 0,000 € / 0,000 € 859,348 € / 4 296,740 €
Don Jon 2013-12-25 3 0,000 € / 0,000 € 100,822 € / 302,466 €
Albator corsaire de l'espace 2013-12-25 3 0,000 € / 0,000 € 136,996 € / 410,988 €
Jackass présente : bad Grandpa 2013-12-11 2 0,000 € / 0,000 € 16,287 € / 32,574 €
Le hobbit : la désolation de Smaug 2013-12-11 5 0,000 € / 0,000 € 921,074 € / 4 605,370 €
Le secret de l'étoile du nord 2013-12-11 1 0,000 € / 0,000 € 2,918 € / 2,918 €
Évasion 2013-11-13 3 0,000 € / 0,000 € 129,637 € / 388,911 €
La stratégie Ender 2013-11-06 5 0,000 € / 0,000 € 124,081 € / 620,405 €
Le cœur des hommes 3 2013-10-23 3 0,000 € / 0,000 € 82,512 € / 247,536 €
Malavita 2013-10-23 5 0,000 € / 0,000 € 242,443 € / 1 212,215 €
Mission to lars 2013-10-09 1 0,000 € / 0,000 € 0,061 € / 0,061 €
Sherif Jackson 2013-10-09 1 0,000 € / 0,000 € 34,258 € / 34,258 €
C'est la fin 2013-10-09 1 0,000 € / 0,000 € 24,564 € / 24,564 €
Opium 2013-10-02 2 0,000 € / 0,000 € 2,028 € / 4,056 €
Machete kills 2013-10-02 5 0,000 € / 0,000 € 52,180 € / 260,900 €
Parkland 2013-10-02 3 0,000 € / 0,000 € 21,146 € / 63,438 €
2 guns 2013-09-25 3 0,000 € / 0,000 € 131,647 € / 394,941 €
Players 2013-09-25 3 0,000 € / 0,000 € 146,502 € / 439,506 €
Tip top 2013-09-11 2 0,000 € / 0,000 € 34,945 € / 69,890 €
Gare du nord 2013-09-04 1 0,000 € / 0,000 € 31,335 € / 31,335 €
One direction 2013-08-28 2 0,000 € / 0,000 € 16,292 € / 32,584 €
Le dernier pub avant la fin du monde 2013-08-28 3 0,000 € / 0,000 € 55,816 € / 167,448 €
L'aube rouge 2013-08-28 3 0,000 € / 0,000 € 19,441 € / 58,323 €
Red 2 2013-08-28 5 0,000 € / 0,000 € 159,748 € / 798,740 €
Jobs 2013-08-21 3 0,000 € / 0,000 € 93,396 € / 280,188 €
Kick-ass 2 2013-08-21 5 0,000 € / 0,000 € 181,589 € / 907,945 €
Conjuring les dossiers Warren 2013-08-21 3 0,000 € / 0,000 € 316,462 € / 949,386 €
Elysium 2013-08-14 5 0,000 € / 0,000 € 408,918 € / 2 044,590 €
American nightmare 2013-08-07 1 0,000 € / 0,000 € 134,572 € / 134,572 €
Pacific rim 2013-07-17 5 0,000 € / 0,000 € 284,297 € / 1 421,485 €
Crazy Joe 2013-07-10 1 0,000 € / 0,000 € 63,070 € / 63,070 €
Le renard jaune 2013-06-26 1 0,000 € / 0,000 € 3,770 € / 3,770 €
Les stagiaires 2013-06-26 1 0,000 € / 0,000 € 112,437 € / 112,437 €
Dark skies 2013-06-26 1 0,000 € / 0,000 € 41,418 € / 41,418 €
Broken city 2013-06-26 1 0,000 € / 0,000 € 32,561 € / 32,561 €
A very englishman 2013-06-19 1 0,000 € / 0,000 € 13,854 € / 13,854 €
Star Trek into darkness 2013-06-12 2 0,000 € / 0,000 € 288,768 € / 577,536 €
Dechirés / grave 2013-06-12 1 0,000 € / 0,000 € 0,181 € / 0,181 €
Pop redemption 2013-06-05 2 0,000 € / 0,000 € 24,428 € / 48,856 €
After earth 2013-06-05 1 0,000 € / 0,000 € 292,882 € / 292,882 €
D'acier 2013-06-05 1 0,000 € / 0,000 € 1,069 € / 1,069 €
Demi-sœur 2013-06-05 1 0,000 € / 0,000 € 23,426 € / 23,426 €
Vanishing waves 2013-05-29 2 0,000 € / 0,000 € 0,288 € / 0,576 €
Heavy girls 2013-05-29 1 0,000 € / 0,000 € 0,156 € / 0,156 €
Song for Marion 2013-05-15 2 0,000 € / 0,000 € 23,484 € / 46,968 €
Le passé 2013-05-15 3 0,000 € / 0,000 € 278,284 € / 834,852 €
Mama 2013-05-15 2 0,000 € / 0,000 € 101,682 € / 203,364 €
Hotel normandy 2013-05-08 2 0,000 € / 0,000 € 25,923 € / 51,846 €
Sous surveillance 2013-05-08 2 0,000 € / 0,000 € 109,807 € / 219,614 €

Actions détenues

Nom Cours Nombre d'actions
Dany Boon 20 € 1
Tim Burton 11 € 1
Guillaume Canet 42 € 3
Penélope Cruz 54 € 1
Matt Damon 33 € 1
Johnny Depp 12 € 1
Leonardo DiCaprio 14 € 2
Harrison Ford 11 € 1
Jamie Foxx 47 € 1
Peter Jackson 8 € 4
Keanu Reeves 54 € 1
Martin Scorsese 5 € 1
Will Smith 24 € 1
Sylvester Stallone 16 € 2
Jason Statham 22 € 2
Omar Sy 28 € 1
© Cinébourse/Ferblanc/toile 1999-2022.